Time;durP1;ratioP1;P1;durP2;ratioP2;P2;SDS_P1;SDS_P2;PMS_P1;PMS_P2;Temp;Humidity;BMP_temperature;BMP_pressure;BME280_temperature;BME280_humidity;BME280_pressure;Samples;Min_cycle;Max_cycle;Signal;HPM_P1;HPM_P2
2023/07/24 00:00:28;;;;;;;13.40;12.03;;;22.10;21.70;;;;;;5011124;28;20169;-54
2023/07/24 00:02:53;;;;;;;12.67;11.70;;;22.00;23.50;;;;;;5011026;28;20466;-55
2023/07/24 00:05:19;;;;;;;13.60;12.70;;;22.00;26.40;;;;;;5010940;28;20534;-55
2023/07/24 00:07:45;;;;;;;12.97;11.97;;;21.90;25.60;;;;;;5012848;28;20186;-54
2023/07/24 00:10:10;;;;;;;14.37;13.27;;;21.90;24.60;;;;;;5014893;28;20184;-55
2023/07/24 00:12:36;;;;;;;12.57;11.67;;;21.80;24.90;;;;;;5014957;28;20216;-54
2023/07/24 00:15:02;;;;;;;11.90;11.10;;;21.70;26.00;;;;;;4998543;28;20577;-55
2023/07/24 00:17:28;;;;;;;12.87;11.97;;;21.70;25.60;;;;;;5014752;28;20408;-53
2023/07/24 00:19:53;;;;;;;13.40;12.40;;;21.70;25.50;;;;;;5014625;28;20173;-54
2023/07/24 00:22:19;;;;;;;13.90;13.00;;;21.70;25.90;;;;;;4998383;28;20231;-55
2023/07/24 00:24:45;;;;;;;12.63;11.73;;;21.60;26.50;;;;;;5016089;28;20622;-59
2023/07/24 00:27:10;;;;;;;13.67;12.50;;;21.60;26.70;;;;;;5014775;28;20188;-59
2023/07/24 00:29:36;;;;;;;13.90;13.00;;;21.60;27.40;;;;;;5014512;28;20607;-60
2023/07/24 00:32:01;;;;;;;13.60;12.60;;;21.60;27.50;;;;;;5014693;28;20181;-58
2023/07/24 00:34:27;;;;;;;14.27;13.27;;;21.40;28.80;;;;;;5014504;28;20184;-59
2023/07/24 00:36:53;;;;;;;14.60;13.43;;;21.30;29.00;;;;;;5014553;28;20599;-60
2023/07/24 00:39:18;;;;;;;13.57;12.67;;;21.20;30.80;;;;;;4997899;28;20278;-59
2023/07/24 00:41:44;;;;;;;13.63;12.57;;;21.20;29.90;;;;;;4998199;28;20253;-59
2023/07/24 00:44:10;;;;;;;13.57;12.67;;;21.30;29.60;;;;;;5014523;28;20638;-59
2023/07/24 00:46:36;;;;;;;14.17;12.97;;;21.30;29.50;;;;;;4997924;28;20235;-59
2023/07/24 00:49:03;;;;;;;13.80;12.90;;;21.30;29.50;;;;;;5014218;28;20276;-59
2023/07/24 00:51:30;;;;;;;14.30;13.40;;;21.30;29.40;;;;;;4997863;28;20426;-59
2023/07/24 00:54:02;;;;;;;13.77;12.87;;;21.30;29.50;;;;;;4997757;28;20416;-59
2023/07/24 00:56:28;;;;;;;14.70;13.60;;;21.30;29.10;;;;;;4997639;28;20464;-59
2023/07/24 00:58:58;;;;;;;15.20;14.23;;;21.30;29.20;;;;;;4997486;28;20901;-53
2023/07/24 01:01:24;;;;;;;14.70;13.70;;;21.30;31.00;;;;;;4997689;28;20428;-59
2023/07/24 01:03:51;;;;;;;13.63;12.73;;;21.10;32.30;;;;;;4997928;28;20905;-59
2023/07/24 01:06:17;;;;;;;14.70;13.70;;;20.90;34.50;;;;;;4997570;28;20420;-53
2023/07/24 01:08:43;;;;;;;14.50;13.60;;;20.70;35.20;;;;;;5013643;28;20435;-54
2023/07/24 01:11:20;;;;;;;15.30;14.30;;;20.60;36.10;;;;;;5013961;28;20268;-55
2023/07/24 01:14:10;;;;;;;15.53;14.40;;;20.40;35.50;;;;;;5013976;28;20645;-53
2023/07/24 01:16:45;;;;;;;16.17;15.07;;;20.40;35.90;;;;;;4997421;28;20876;-55
2023/07/24 01:19:20;;;;;;;15.07;14.17;;;20.40;37.20;;;;;;5013365;28;20407;-55
2023/07/24 01:22:06;;;;;;;15.93;14.83;;;20.30;36.50;;;;;;5013850;28;20466;-54
2023/07/24 01:25:06;;;;;;;15.50;14.30;;;20.20;35.40;;;;;;4997301;28;20444;-53
2023/07/24 01:27:32;;;;;;;15.80;14.70;;;20.30;36.30;;;;;;4997253;28;20467;-55
2023/07/24 01:29:58;;;;;;;14.57;13.67;;;20.30;35.80;;;;;;4997021;28;20432;-55
2023/07/24 01:32:24;;;;;;;15.07;14.07;;;20.40;34.20;;;;;;5013452;28;20491;-53
2023/07/24 01:34:51;;;;;;;14.70;13.80;;;20.60;32.50;;;;;;5013452;28;20287;-58
2023/07/24 01:37:17;;;;;;;15.23;14.23;;;20.70;32.10;;;;;;4997030;28;20520;-54
2023/07/24 01:39:45;;;;;;;14.60;13.63;;;20.80;31.10;;;;;;4996872;28;20493;-56
2023/07/24 01:42:12;;;;;;;15.67;14.57;;;20.90;30.70;;;;;;4994838;28;20501;-53
2023/07/24 01:44:38;;;;;;;16.03;14.80;;;20.90;30.40;;;;;;5013056;28;20438;-54
2023/07/24 01:47:03;;;;;;;15.10;14.10;;;21.00;29.50;;;;;;4996708;28;20747;-54
2023/07/24 01:49:29;;;;;;;14.27;13.37;;;21.00;24.90;;;;;;5012797;28;20279;-54
2023/07/24 01:51:55;;;;;;;14.23;13.13;;;20.90;25.70;;;;;;5012931;28;20563;-55
2023/07/24 01:54:20;;;;;;;14.53;13.50;;;20.80;24.80;;;;;;5012976;28;20913;-53
2023/07/24 01:56:46;;;;;;;14.07;13.03;;;20.80;24.00;;;;;;4996447;28;20196;-55
2023/07/24 01:59:11;;;;;;;13.33;12.53;;;20.90;23.60;;;;;;5012747;28;20200;-54
2023/07/24 02:01:37;;;;;;;14.10;13.20;;;21.00;24.90;;;;;;5013058;28;20541;-55
2023/07/24 02:04:03;;;;;;;14.10;13.20;;;21.00;23.30;;;;;;5012879;28;20664;-53
2023/07/24 02:06:29;;;;;;;14.10;13.10;;;21.00;22.70;;;;;;5012957;28;20189;-53
2023/07/24 02:08:54;;;;;;;14.67;13.70;;;21.00;22.40;;;;;;5012631;28;20947;-55
2023/07/24 02:11:20;;;;;;;14.30;13.20;;;21.10;23.20;;;;;;5012769;28;20263;-55
2023/07/24 02:13:46;;;;;;;15.53;14.33;;;21.10;23.40;;;;;;4996492;28;20660;-55
2023/07/24 02:16:15;;;;;;;14.57;13.47;;;21.20;23.20;;;;;;5012459;28;20236;-54
2023/07/24 02:18:43;;;;;;;14.50;13.50;;;21.20;22.50;;;;;;5012398;28;20428;-57
2023/07/24 02:21:09;;;;;;;14.67;13.67;;;21.10;22.20;;;;;;5012619;28;20424;-59
2023/07/24 02:23:35;;;;;;;14.37;13.40;;;21.00;22.40;;;;;;5012505;28;20928;-59
2023/07/24 02:26:01;;;;;;;15.73;14.67;;;21.00;22.40;;;;;;5012525;28;20420;-59
2023/07/24 02:28:26;;;;;;;14.73;13.73;;;21.00;22.40;;;;;;5012255;28;20412;-60
2023/07/24 02:30:56;;;;;;;14.53;13.43;;;21.00;23.30;;;;;;5012012;28;20482;-60
2023/07/24 02:33:22;;;;;;;14.20;13.20;;;21.10;23.50;;;;;;5012315;28;20177;-60
2023/07/24 02:35:51;;;;;;;14.23;13.13;;;21.10;24.00;;;;;;5012356;28;20476;-60
2023/07/24 02:38:17;;;;;;;14.50;13.50;;;21.20;24.20;;;;;;5012067;28;20412;-59
2023/07/24 02:40:44;;;;;;;14.97;13.20;;;21.30;24.40;;;;;;4996015;28;20416;-59
2023/07/24 02:43:09;;;;;;;14.50;13.40;;;21.30;24.20;;;;;;5012188;28;20595;-58
2023/07/24 02:45:37;;;;;;;14.10;13.10;;;21.30;23.70;;;;;;5012105;28;20417;-59
2023/07/24 02:48:03;;;;;;;13.77;12.97;;;21.40;23.50;;;;;;5011888;28;20188;-60
2023/07/24 02:50:28;;;;;;;15.07;14.17;;;21.40;23.50;;;;;;5012057;28;20582;-60
2023/07/24 02:52:54;;;;;;;16.30;15.00;;;21.40;23.20;;;;;;5012103;28;20177;-59
2023/07/24 02:55:20;;;;;;;14.67;13.70;;;21.40;23.00;;;;;;5011775;28;20467;-59
2023/07/24 02:57:45;;;;;;;14.57;13.57;;;21.40;22.90;;;;;;5012010;28;20180;-59
2023/07/24 03:00:12;;;;;;;14.50;13.60;;;21.40;23.10;;;;;;5011793;28;20185;-59
2023/07/24 03:02:38;;;;;;;14.00;13.00;;;21.40;23.10;;;;;;5011764;28;20173;-60
2023/07/24 03:05:04;;;;;;;13.47;12.67;;;21.40;22.70;;;;;;5010310;28;20436;-60
2023/07/24 03:07:30;;;;;;;14.67;13.33;;;21.40;22.60;;;;;;5011458;28;20416;-60
2023/07/24 03:09:55;;;;;;;14.57;13.67;;;21.40;22.70;;;;;;5011348;28;20459;-60
2023/07/24 03:12:21;;;;;;;14.27;13.30;;;21.40;22.60;;;;;;4995036;28;20181;-60
2023/07/24 03:14:47;;;;;;;14.17;13.30;;;21.30;22.60;;;;;;4995033;28;20200;-54
2023/07/24 03:17:13;;;;;;;14.90;13.93;;;21.30;22.60;;;;;;5011403;28;20219;-55
2023/07/24 03:19:39;;;;;;;14.63;13.53;;;21.30;22.60;;;;;;4994750;28;20511;-54
2023/07/24 03:22:05;;;;;;;14.33;13.33;;;21.10;21.50;;;;;;4995255;28;20277;-54
2023/07/24 03:24:31;;;;;;;15.47;14.17;;;21.00;22.40;;;;;;5011605;28;20506;-55
2023/07/24 03:26:56;;;;;;;14.57;13.60;;;20.90;22.30;;;;;;5011535;28;20673;-51
2023/07/24 03:29:22;;;;;;;14.33;13.40;;;20.70;22.70;;;;;;5011236;28;20173;-55
2023/07/24 03:31:48;;;;;;;14.93;13.97;;;20.70;23.10;;;;;;5011436;28;20308;-54
2023/07/24 03:34:13;;;;;;;15.30;14.40;;;20.70;23.30;;;;;;4994982;28;20176;-55
2023/07/24 03:36:41;;;;;;;14.33;13.43;;;20.80;22.50;;;;;;5011275;28;20205;-53
2023/07/24 03:39:09;;;;;;;13.67;12.83;;;20.90;22.30;;;;;;5011168;28;20525;-55
2023/07/24 03:41:34;;;;;;;13.97;13.07;;;20.90;22.30;;;;;;4994224;28;20432;-54
2023/07/24 03:44:00;;;;;;;13.50;12.67;;;21.00;22.40;;;;;;5011264;28;20412;-53
2023/07/24 03:46:26;;;;;;;14.80;13.83;;;21.10;22.40;;;;;;5011166;28;20178;-54
2023/07/24 03:48:52;;;;;;;14.60;13.70;;;21.10;22.30;;;;;;5011118;28;20177;-55
2023/07/24 03:51:17;;;;;;;13.97;12.97;;;21.10;22.40;;;;;;5011162;28;20264;-54
2023/07/24 03:53:43;;;;;;;13.63;12.63;;;21.10;22.40;;;;;;5011166;28;20499;-55
2023/07/24 03:56:09;;;;;;;14.83;13.73;;;21.10;22.40;;;;;;5011015;28;20241;-54
2023/07/24 03:58:34;;;;;;;15.40;14.30;;;21.10;21.90;;;;;;5010858;28;20177;-58
2023/07/24 04:01:00;;;;;;;15.20;14.13;;;21.00;22.40;;;;;;5011074;28;20272;-53
2023/07/24 04:03:26;;;;;;;14.80;13.70;;;20.80;22.20;;;;;;5010966;28;20169;-55
2023/07/24 04:05:51;;;;;;;15.13;14.10;;;20.80;22.60;;;;;;5011056;28;20181;-55
2023/07/24 04:08:17;;;;;;;13.83;12.93;;;20.90;22.30;;;;;;5010719;28;20181;-56
2023/07/24 04:10:42;;;;;;;14.57;13.47;;;21.00;22.40;;;;;;5011037;28;20200;-55
2023/07/24 04:13:08;;;;;;;14.50;13.50;;;21.10;22.40;;;;;;5010974;28;20181;-55
2023/07/24 04:15:34;;;;;;;14.40;13.50;;;21.10;22.40;;;;;;5010889;28;20216;-55
2023/07/24 04:17:59;;;;;;;15.93;14.73;;;21.20;22.50;;;;;;5010667;28;20268;-55
2023/07/24 04:20:25;;;;;;;15.10;14.00;;;21.20;22.50;;;;;;5012031;28;20219;-56
2023/07/24 04:22:51;;;;;;;14.57;13.57;;;21.10;21.90;;;;;;4994590;28;20208;-55
2023/07/24 04:25:16;;;;;;;15.40;14.40;;;21.20;20.90;;;;;;5010754;28;20223;-54
2023/07/24 04:27:42;;;;;;;13.30;12.50;;;21.20;22.50;;;;;;5010776;28;20209;-56
2023/07/24 04:30:08;;;;;;;14.83;13.73;;;21.20;21.90;;;;;;5010596;28;20187;-55
2023/07/24 04:32:33;;;;;;;14.63;13.53;;;21.30;21.90;;;;;;5010793;28;20260;-55
2023/07/24 04:34:59;;;;;;;15.07;13.97;;;21.30;22.20;;;;;;4994347;28;20609;-55
2023/07/24 04:37:25;;;;;;;15.10;14.00;;;21.30;22.60;;;;;;5010654;28;20173;-54
2023/07/24 04:39:50;;;;;;;15.87;14.60;;;21.40;22.60;;;;;;5010564;28;20177;-53
2023/07/24 04:42:16;;;;;;;15.20;14.27;;;21.40;22.60;;;;;;5010641;28;20272;-59
2023/07/24 04:44:41;;;;;;;14.53;13.63;;;21.50;22.70;;;;;;5010603;28;20436;-59
2023/07/24 04:47:07;;;;;;;14.70;13.80;;;21.40;22.90;;;;;;5010566;28;20177;-59
2023/07/24 04:49:33;;;;;;;14.53;13.63;;;21.40;22.90;;;;;;5010667;28;20646;-56
2023/07/24 04:51:59;;;;;;;14.80;13.80;;;21.50;23.10;;;;;;5010932;28;20177;-56
2023/07/24 04:54:25;;;;;;;15.03;14.03;;;21.40;22.70;;;;;;5013398;28;20181;-59
2023/07/24 04:56:51;;;;;;;14.70;13.73;;;21.50;23.00;;;;;;5014226;28;20428;-59
2023/07/24 04:59:16;;;;;;;13.87;12.87;;;21.50;23.30;;;;;;4997547;28;20170;-59
2023/07/24 05:01:42;;;;;;;14.60;13.70;;;21.50;22.70;;;;;;5014319;28;20442;-59
2023/07/24 05:04:08;;;;;;;15.30;14.30;;;21.50;22.70;;;;;;5014336;28;20264;-59
2023/07/24 05:06:35;;;;;;;15.20;14.20;;;21.50;22.70;;;;;;5014237;28;20701;-59
2023/07/24 05:09:01;;;;;;;16.00;15.00;;;21.40;22.60;;;;;;5014042;28;20200;-58
2023/07/24 05:11:27;;;;;;;14.80;13.90;;;21.50;22.80;;;;;;5014243;28;20807;-58
2023/07/24 05:13:52;;;;;;;16.27;15.27;;;21.40;22.40;;;;;;5015505;28;20507;-59
2023/07/24 05:16:18;;;;;;;16.23;15.03;;;21.30;20.70;;;;;;5013957;28;20208;-59
2023/07/24 05:18:44;;;;;;;15.10;13.90;;;21.30;20.50;;;;;;5013769;28;20178;-59
2023/07/24 05:21:09;;;;;;;15.83;14.63;;;21.30;19.60;;;;;;5014039;28;20173;-59
2023/07/24 05:23:35;;;;;;;15.57;14.27;;;21.30;19.10;;;;;;5013848;28;20671;-58
2023/07/24 05:26:02;;;;;;;14.47;13.53;;;21.20;19.40;;;;;;5014007;28;20177;-59
2023/07/24 05:28:29;;;;;;;15.57;14.37;;;21.20;19.50;;;;;;5013652;28;20173;-59
2023/07/24 05:30:55;;;;;;;14.97;13.60;;;21.30;19.70;;;;;;5013956;28;20504;-53
2023/07/24 05:33:20;;;;;;;15.50;14.30;;;21.30;19.50;;;;;;5013749;28;20499;-52
2023/07/24 05:35:46;;;;;;;15.07;13.57;;;21.30;19.60;;;;;;5013764;28;20566;-54
2023/07/24 05:38:12;;;;;;;15.20;14.20;;;21.30;19.50;;;;;;5013553;28;20211;-54
2023/07/24 05:40:37;;;;;;;15.50;14.53;;;21.30;19.70;;;;;;5013842;28;20169;-55
2023/07/24 05:43:03;;;;;;;14.93;13.87;;;21.30;19.90;;;;;;4997505;28;20606;-54
2023/07/24 05:45:29;;;;;;;17.33;14.43;;;21.30;19.90;;;;;;5013610;28;20185;-54
2023/07/24 05:47:55;;;;;;;14.60;13.60;;;21.20;20.10;;;;;;5013348;28;20424;-58
2023/07/24 05:50:20;;;;;;;15.37;14.37;;;21.30;20.40;;;;;;5013329;28;20182;-58
2023/07/24 05:52:46;;;;;;;15.20;14.20;;;21.30;20.50;;;;;;5013377;28;20177;-60
2023/07/24 05:55:12;;;;;;;15.47;14.33;;;21.30;20.70;;;;;;5014682;28;20200;-59
2023/07/24 05:57:37;;;;;;;14.77;13.77;;;21.40;20.80;;;;;;5013440;28;20180;-60
2023/07/24 06:00:04;;;;;;;14.53;13.63;;;21.50;20.60;;;;;;5013175;28;20173;-53
2023/07/24 06:02:30;;;;;;;14.90;13.90;;;21.50;20.40;;;;;;5013237;28;20188;-53
2023/07/24 06:04:56;;;;;;;16.10;15.00;;;21.60;20.50;;;;;;5012459;28;20778;-51
2023/07/24 06:07:22;;;;;;;15.33;14.20;;;21.60;20.60;;;;;;5011977;28;20181;-59
2023/07/24 06:09:48;;;;;;;15.13;13.93;;;21.70;20.30;;;;;;5011253;28;20327;-58
2023/07/24 06:12:14;;;;;;;15.00;13.80;;;21.70;20.20;;;;;;4976798;28;20178;-59
2023/07/24 06:14:39;;;;;;;14.97;14.03;;;21.70;20.30;;;;;;4976719;28;20771;-58
2023/07/24 06:17:06;;;;;;;14.90;13.60;;;21.70;20.30;;;;;;4976234;28;20654;-58
2023/07/24 06:19:31;;;;;;;16.53;15.20;;;21.80;20.50;;;;;;4975702;28;20304;-58
2023/07/24 06:21:57;;;;;;;14.70;13.80;;;21.80;20.70;;;;;;4975540;28;20504;-59
2023/07/24 06:24:23;;;;;;;15.43;14.30;;;21.80;20.20;;;;;;4975123;28;20166;-59
2023/07/24 06:26:49;;;;;;;17.33;15.70;;;21.80;20.30;;;;;;4975206;28;20185;-59
2023/07/24 06:29:15;;;;;;;15.30;14.20;;;21.80;20.20;;;;;;4974787;28;20417;-59
2023/07/24 06:31:41;;;;;;;16.60;15.20;;;21.80;20.60;;;;;;4975158;28;20428;-58
2023/07/24 06:34:07;;;;;;;17.87;15.60;;;21.80;20.20;;;;;;4994092;28;20409;-54
2023/07/24 06:36:32;;;;;;;16.03;14.57;;;21.80;20.60;;;;;;4976343;28;20585;-55
2023/07/24 06:38:58;;;;;;;16.67;14.97;;;21.80;20.30;;;;;;4976142;28;20673;-55
2023/07/24 06:41:24;;;;;;;15.73;14.50;;;21.80;20.50;;;;;;4976507;28;20178;-55
2023/07/24 06:43:51;;;;;;;15.70;14.53;;;21.90;20.90;;;;;;4976398;28;20218;-54
2023/07/24 06:46:16;;;;;;;15.50;14.30;;;21.90;21.00;;;;;;4976275;28;20413;-59
2023/07/24 06:48:42;;;;;;;15.90;14.63;;;21.90;21.00;;;;;;4976025;28;20421;-60
2023/07/24 06:51:08;;;;;;;15.37;14.03;;;21.80;20.40;;;;;;4976198;28;20178;-59
2023/07/24 06:53:33;;;;;;;15.33;14.20;;;21.80;20.40;;;;;;4976190;28;20174;-60
2023/07/24 06:55:59;;;;;;;14.93;13.93;;;21.90;20.80;;;;;;4975864;28;20218;-59
2023/07/24 06:58:25;;;;;;;15.10;14.10;;;21.90;20.60;;;;;;4975832;28;20170;-59
2023/07/24 07:00:50;;;;;;;14.40;13.30;;;21.90;21.10;;;;;;4976050;28;20277;-55
2023/07/24 07:03:16;;;;;;;14.80;13.70;;;21.90;21.10;;;;;;4992389;28;20570;-56
2023/07/24 07:05:42;;;;;;;15.67;14.63;;;22.00;21.10;;;;;;4987273;28;20177;-55
2023/07/24 07:08:07;;;;;;;15.20;14.20;;;21.90;20.90;;;;;;5010996;28;20169;-56
2023/07/24 07:10:33;;;;;;;15.57;14.47;;;22.00;20.90;;;;;;5010330;28;20177;-55
2023/07/24 07:12:59;;;;;;;15.20;14.13;;;22.00;21.00;;;;;;5011675;28;20209;-55
2023/07/24 07:15:24;;;;;;;15.83;14.43;;;22.00;21.10;;;;;;5011263;28;20687;-55
2023/07/24 07:17:50;;;;;;;15.80;14.70;;;22.00;21.10;;;;;;5011364;28;20420;-55
2023/07/24 07:20:16;;;;;;;16.80;15.50;;;22.00;21.20;;;;;;5011275;28;20173;-55
2023/07/24 07:22:41;;;;;;;15.50;14.50;;;22.00;21.30;;;;;;5011275;28;20189;-55
2023/07/24 07:25:07;;;;;;;15.07;14.00;;;22.00;21.30;;;;;;4994586;28;20267;-52
2023/07/24 07:27:33;;;;;;;15.90;14.40;;;22.00;21.40;;;;;;4994820;28;20196;-55
2023/07/24 07:29:58;;;;;;;15.33;14.10;;;22.00;21.60;;;;;;5011114;28;20642;-54
2023/07/24 07:32:24;;;;;;;15.73;14.40;;;22.00;21.60;;;;;;4994910;28;20173;-54
2023/07/24 07:34:50;;;;;;;16.53;14.93;;;22.00;21.60;;;;;;4994730;28;20224;-54
2023/07/24 07:37:16;;;;;;;15.87;14.37;;;22.10;21.40;;;;;;4994942;28;20412;-53
2023/07/24 07:39:41;;;;;;;16.97;15.70;;;22.10;21.60;;;;;;4994449;28;20680;-54
2023/07/24 07:42:07;;;;;;;14.53;13.40;;;22.10;21.50;;;;;;4994825;28;20188;-53
2023/07/24 07:44:33;;;;;;;14.87;13.87;;;22.10;21.40;;;;;;4994716;28;20637;-54
2023/07/24 07:46:58;;;;;;;15.97;14.57;;;22.10;21.50;;;;;;4994745;28;20304;-54
2023/07/24 07:49:24;;;;;;;15.67;14.20;;;22.10;21.80;;;;;;4994148;28;20258;-53
2023/07/24 07:51:49;;;;;;;14.53;13.47;;;22.10;22.00;;;;;;4993031;28;20174;-54
2023/07/24 07:54:15;;;;;;;14.90;13.80;;;22.10;22.10;;;;;;5009812;28;20268;-54
2023/07/24 07:56:41;;;;;;;14.97;13.77;;;22.20;22.00;;;;;;4994350;28;20300;-54
2023/07/24 07:59:07;;;;;;;14.37;13.40;;;22.20;22.40;;;;;;5012164;28;20412;-54
2023/07/24 08:01:33;;;;;;;14.40;13.30;;;22.20;22.70;;;;;;4994716;28;20416;-53
2023/07/24 08:03:58;;;;;;;15.00;13.90;;;22.20;23.20;;;;;;4994674;28;20205;-54
2023/07/24 08:06:24;;;;;;;15.27;14.17;;;22.30;23.20;;;;;;4995030;28;20275;-58
2023/07/24 08:08:50;;;;;;;16.47;14.47;;;22.30;24.40;;;;;;4994477;28;20617;-57
2023/07/24 08:11:16;;;;;;;14.37;13.40;;;22.30;23.60;;;;;;4994503;28;20177;-58
2023/07/24 08:13:41;;;;;;;14.80;13.50;;;22.30;24.40;;;;;;4994503;28;20173;-58
2023/07/24 08:16:21;;;;;;;15.57;14.50;;;22.30;24.30;;;;;;4994471;28;20287;-57
2023/07/24 08:18:47;;;;;;;14.60;13.60;;;22.40;24.90;;;;;;4994507;28;20172;-57
2023/07/24 08:21:14;;;;;;;14.93;13.83;;;22.40;25.10;;;;;;4994460;28;20417;-57
2023/07/24 08:23:40;;;;;;;15.70;14.30;;;22.30;26.80;;;;;;4994477;28;20832;-57
2023/07/24 08:26:06;;;;;;;15.77;14.47;;;22.30;27.40;;;;;;4994169;28;20432;-57
2023/07/24 08:28:33;;;;;;;16.03;14.80;;;22.20;28.50;;;;;;5012114;28;20510;-57
2023/07/24 08:31:01;;;;;;;15.63;14.43;;;22.20;29.40;;;;;;5014714;28;20424;-55
2023/07/24 08:33:26;;;;;;;15.83;14.50;;;22.20;29.60;;;;;;5014584;28;20474;-56
2023/07/24 08:36:06;;;;;;;15.27;14.17;;;22.00;31.70;;;;;;5014703;28;20459;-56
2023/07/24 08:38:32;;;;;;;16.50;15.30;;;21.80;32.10;;;;;;5014470;28;20645;-55
2023/07/24 08:41:02;;;;;;;15.73;14.53;;;21.80;33.60;;;;;;5014410;28;20423;-60
2023/07/24 08:43:30;;;;;;;15.50;14.40;;;21.80;33.70;;;;;;5014461;28;20424;-59
2023/07/24 08:45:58;;;;;;;14.87;13.83;;;21.80;34.40;;;;;;5014312;28;20466;-55
2023/07/24 08:48:26;;;;;;;13.97;13.13;;;21.70;34.10;;;;;;5014113;28;20413;-56
2023/07/24 08:50:52;;;;;;;14.53;13.53;;;21.80;35.10;;;;;;5014231;28;20412;-56
2023/07/24 08:53:19;;;;;;;15.10;14.20;;;21.60;34.70;;;;;;5014249;28;20482;-57
2023/07/24 08:55:48;;;;;;;16.20;14.90;;;21.50;35.50;;;;;;5010165;28;20472;-57
2023/07/24 08:58:14;;;;;;;15.37;14.10;;;21.40;37.10;;;;;;4978420;28;20421;-55
2023/07/24 09:00:40;;;;;;;14.53;13.33;;;21.30;38.60;;;;;;4978477;28;20519;-57
2023/07/24 09:03:05;;;;;;;13.40;12.43;;;21.30;39.30;;;;;;4978652;28;20201;-56
2023/07/24 09:05:31;;;;;;;14.03;13.07;;;21.30;38.10;;;;;;4978527;28;20413;-56
2023/07/24 09:07:57;;;;;;;13.70;12.80;;;21.20;38.10;;;;;;4994490;28;20530;-56
2023/07/24 09:10:26;;;;;;;14.13;13.23;;;21.20;39.60;;;;;;4978159;28;20186;-56
2023/07/24 09:12:52;;;;;;;12.97;12.17;;;21.10;41.10;;;;;;4978074;28;20189;-56
2023/07/24 09:15:18;;;;;;;14.30;13.30;;;21.10;39.30;;;;;;4977914;28;20449;-56
2023/07/24 09:17:51;;;;;;;14.10;13.10;;;21.00;38.30;;;;;;4978041;28;20545;-57
2023/07/24 09:20:17;;;;;;;13.87;12.73;;;21.00;38.90;;;;;;4977843;28;20174;-56
2023/07/24 09:22:53;;;;;;;13.43;12.23;;;21.00;37.90;;;;;;4995340;28;20409;-59
2023/07/24 09:25:30;;;;;;;13.17;12.20;;;21.00;38.60;;;;;;4977936;28;20413;-60
2023/07/24 09:28:00;;;;;;;12.67;11.77;;;21.10;40.80;;;;;;4977562;28;20428;-55
2023/07/24 09:30:25;;;;;;;12.20;11.47;;;21.20;39.30;;;;;;4977663;28;20449;-55
2023/07/24 09:32:54;;;;;;;13.43;12.40;;;21.20;38.20;;;;;;4977650;28;20491;-55
2023/07/24 09:35:27;;;;;;;11.90;11.00;;;21.30;38.90;;;;;;4977619;28;20573;-58
2023/07/24 09:38:08;;;;;;;11.73;10.93;;;21.30;38.10;;;;;;4977562;28;20955;-57
2023/07/24 09:40:45;;;;;;;12.00;11.20;;;21.30;36.80;;;;;;4992545;28;20452;-55
2023/07/24 09:43:15;;;;;;;11.53;10.80;;;21.30;37.00;;;;;;4977520;28;20412;-57
2023/07/24 09:45:42;;;;;;;12.47;11.47;;;21.40;37.10;;;;;;4994945;28;20409;-56
2023/07/24 09:48:11;;;;;;;13.70;12.53;;;21.40;37.10;;;;;;4977196;28;20500;-55
2023/07/24 09:50:38;;;;;;;12.30;11.40;;;21.50;36.90;;;;;;4977406;28;20417;-57
2023/07/24 09:53:08;;;;;;;12.50;11.70;;;21.60;36.50;;;;;;4977280;28;20453;-56
2023/07/24 09:55:45;;;;;;;11.77;10.87;;;21.70;36.10;;;;;;4977096;28;20494;-57
2023/07/24 09:58:13;;;;;;;12.20;11.20;;;21.70;36.60;;;;;;4977107;28;20409;-55
2023/07/24 10:00:38;;;;;;;12.13;11.40;;;21.70;36.80;;;;;;4977263;28;20471;-57
2023/07/24 10:03:04;;;;;;;11.43;10.63;;;21.80;37.50;;;;;;4993624;28;20801;-56
2023/07/24 10:05:30;;;;;;;12.37;11.47;;;21.80;37.40;;;;;;4977245;28;20552;-55
2023/07/24 10:07:56;;;;;;;12.27;11.37;;;21.80;36.70;;;;;;4976655;28;20413;-55
2023/07/24 10:10:22;;;;;;;11.87;11.07;;;21.80;36.70;;;;;;4993239;28;20194;-55
2023/07/24 10:12:49;;;;;;;11.00;10.27;;;21.80;37.10;;;;;;4976903;28;20508;-55
2023/07/24 10:15:15;;;;;;;11.33;10.63;;;21.70;38.00;;;;;;4976811;28;20519;-55
2023/07/24 10:17:41;;;;;;;11.30;10.60;;;21.70;38.70;;;;;;4976903;28;20421;-56
2023/07/24 10:20:11;;;;;;;11.30;10.50;;;21.70;38.00;;;;;;4976773;28;20864;-57
2023/07/24 10:22:41;;;;;;;12.80;12.00;;;21.70;38.20;;;;;;4994330;28;20409;-55
2023/07/24 10:25:08;;;;;;;13.30;12.30;;;21.60;38.90;;;;;;4976941;28;20764;-56
2023/07/24 10:27:43;;;;;;;11.70;10.80;;;21.60;39.10;;;;;;4976535;28;20426;-56
2023/07/24 10:30:09;;;;;;;11.67;10.73;;;21.60;39.70;;;;;;4976492;28;20452;-56
2023/07/24 10:32:46;;;;;;;12.30;11.30;;;21.60;40.30;;;;;;4992666;28;20474;-56
2023/07/24 10:35:12;;;;;;;11.87;10.97;;;21.50;41.60;;;;;;4976662;28;20264;-56
2023/07/24 10:37:37;;;;;;;11.97;11.17;;;21.50;42.00;;;;;;4998647;28;20785;-56
2023/07/24 10:40:04;;;;;;;11.67;10.97;;;21.40;41.50;;;;;;5012053;28;20177;-55
2023/07/24 10:42:33;;;;;;;12.20;11.30;;;21.40;42.00;;;;;;5011514;28;20221;-55
2023/07/24 10:45:05;;;;;;;12.33;11.47;;;21.30;40.80;;;;;;4995344;28;20791;-55
2023/07/24 10:47:31;;;;;;;14.10;13.07;;;21.20;41.70;;;;;;4994758;28;20443;-56
2023/07/24 10:49:57;;;;;;;12.73;11.73;;;21.20;43.20;;;;;;5011919;28;20917;-56
2023/07/24 10:52:30;;;;;;;12.83;11.90;;;21.20;44.00;;;;;;5011481;28;20180;-56
2023/07/24 10:55:06;;;;;;;12.50;11.60;;;21.10;44.80;;;;;;4995019;28;20466;-57
2023/07/24 10:57:32;;;;;;;12.20;11.17;;;21.10;44.60;;;;;;4993239;28;20436;-57
2023/07/24 10:59:59;;;;;;;13.17;12.07;;;20.90;44.60;;;;;;5011287;28;20952;-56
2023/07/24 11:02:25;;;;;;;12.63;11.53;;;20.80;45.80;;;;;;5008465;28;20491;-57
2023/07/24 11:04:50;;;;;;;12.17;11.03;;;20.80;47.30;;;;;;5012565;28;20555;-57
2023/07/24 11:07:16;;;;;;;11.70;10.90;;;20.70;46.60;;;;;;5011005;28;20193;-57
2023/07/24 11:09:43;;;;;;;13.53;12.50;;;20.60;48.20;;;;;;5011546;28;20174;-60
2023/07/24 11:12:11;;;;;;;13.00;11.60;;;20.50;48.50;;;;;;5011873;28;20256;-57
2023/07/24 11:14:46;;;;;;;12.00;10.90;;;20.40;50.60;;;;;;5011523;28;20430;-57
2023/07/24 11:17:12;;;;;;;11.53;10.73;;;20.40;49.00;;;;;;5011435;28;20511;-57
2023/07/24 11:19:37;;;;;;;12.50;11.50;;;20.30;48.90;;;;;;5011245;28;20943;-57
2023/07/24 11:22:03;;;;;;;11.97;11.00;;;20.30;49.80;;;;;;5011541;28;20181;-59
2023/07/24 11:24:29;;;;;;;12.60;11.60;;;20.20;50.30;;;;;;5011223;28;20181;-58
2023/07/24 11:26:55;;;;;;;10.70;9.80;;;20.20;48.40;;;;;;5011091;28;20419;-57
2023/07/24 11:29:20;;;;;;;12.33;11.20;;;20.20;49.70;;;;;;5009421;28;20217;-61
2023/07/24 11:31:46;;;;;;;11.33;10.53;;;20.10;50.10;;;;;;5009695;28;20185;-60
2023/07/24 11:34:12;;;;;;;11.60;10.60;;;20.00;49.10;;;;;;5009608;28;20637;-60
2023/07/24 11:36:38;;;;;;;11.00;10.20;;;20.10;49.30;;;;;;5010555;28;20213;-61
2023/07/24 11:39:03;;;;;;;11.83;10.90;;;20.10;47.80;;;;;;5009276;28;20763;-61
2023/07/24 11:41:29;;;;;;;12.23;11.30;;;20.10;49.70;;;;;;5010499;28;20174;-61
2023/07/24 11:43:55;;;;;;;11.03;10.30;;;20.20;49.80;;;;;;5011324;28;20276;-61
2023/07/24 11:46:28;;;;;;;10.33;9.63;;;20.20;49.30;;;;;;5011177;28;20185;-57
2023/07/24 11:48:56;;;;;;;12.03;11.13;;;20.40;49.70;;;;;;5011111;28;20397;-56
2023/07/24 11:51:24;;;;;;;11.63;10.57;;;20.50;49.50;;;;;;5011051;28;20421;-60
2023/07/24 11:53:50;;;;;;;10.63;9.83;;;20.60;50.30;;;;;;5011252;28;20461;-61
2023/07/24 11:56:18;;;;;;;11.10;10.40;;;20.70;49.70;;;;;;5010980;28;20475;-57
2023/07/24 11:58:43;;;;;;;11.50;10.60;;;20.70;49.10;;;;;;5011052;28;20780;-57
2023/07/24 12:01:12;;;;;;;11.03;10.03;;;20.80;51.10;;;;;;5011221;28;20412;-62
2023/07/24 12:03:37;;;;;;;11.00;10.07;;;20.80;48.20;;;;;;5010368;28;20181;-62
2023/07/24 12:06:04;;;;;;;11.57;10.73;;;20.70;46.30;;;;;;5010887;28;20431;-61
2023/07/24 12:08:34;;;;;;;11.27;10.57;;;20.70;46.20;;;;;;5010751;28;20560;-61
2023/07/24 12:11:00;;;;;;;12.30;11.30;;;20.60;46.80;;;;;;5010937;28;20412;-61
2023/07/24 12:13:25;;;;;;;10.37;9.70;;;20.60;47.00;;;;;;5010803;28;20424;-57
2023/07/24 12:15:51;;;;;;;11.90;11.13;;;20.50;46.10;;;;;;5010885;28;20832;-62
2023/07/24 12:18:17;;;;;;;11.97;11.17;;;20.50;46.90;;;;;;5010615;28;20227;-61
2023/07/24 12:20:42;;;;;;;11.53;10.57;;;20.50;47.10;;;;;;5010716;28;20482;-61
2023/07/24 12:23:08;;;;;;;11.27;10.47;;;20.50;46.80;;;;;;5010804;28;20250;-61
2023/07/24 12:25:34;;;;;;;10.53;9.73;;;20.60;46.80;;;;;;5010740;28;20665;-60